createdAt,value
2022-11-02T00:01:23.285Z,32.50
2022-11-02T00:03:55.592Z,30.80
2022-11-02T00:06:27.865Z,37.40
2022-11-02T00:09:00.047Z,40.70
2022-11-02T00:11:32.289Z,33.10
2022-11-02T00:14:04.584Z,38.60
2022-11-02T00:16:36.921Z,35.10
2022-11-02T00:19:09.756Z,35.60
2022-11-02T00:21:42.130Z,32.20
2022-11-02T00:26:44.923Z,35.20
2022-11-02T00:29:17.109Z,34.70
2022-11-02T00:31:49.296Z,32.40
2022-11-02T00:34:21.426Z,29.60
2022-11-02T00:36:55.611Z,28.90
2022-11-02T00:39:28.000Z,32.10
2022-11-02T00:42:00.162Z,38.40
2022-11-02T00:44:32.256Z,32.70
2022-11-02T00:47:04.515Z,33.60
2022-11-02T00:49:36.654Z,31.40
2022-11-02T00:52:09.295Z,35.30
2022-11-02T00:54:41.433Z,29.50
2022-11-02T00:57:13.536Z,34.10
2022-11-02T00:59:45.716Z,33.10
2022-11-02T01:02:18.157Z,30.70
2022-11-02T01:04:50.489Z,30.30
2022-11-02T01:07:22.731Z,25.40
2022-11-02T01:09:55.080Z,32.50
2022-11-02T01:12:27.497Z,32.20
2022-11-02T01:14:59.664Z,28.30
2022-11-02T01:17:31.888Z,28.40
2022-11-02T01:20:04.459Z,28.70
2022-11-02T01:22:37.081Z,26.00
2022-11-02T01:27:40.193Z,30.20
2022-11-02T01:30:14.393Z,30.50
2022-11-02T01:32:46.908Z,28.40
2022-11-02T01:35:19.251Z,28.90
2022-11-02T01:37:51.363Z,27.60
2022-11-02T01:40:23.532Z,31.10
2022-11-02T01:42:55.680Z,30.60
2022-11-02T01:45:27.933Z,27.30
2022-11-02T01:48:00.436Z,29.40
2022-11-02T01:53:03.353Z,33.70
2022-11-02T01:55:36.536Z,33.50
2022-11-02T01:58:11.508Z,29.20
2022-11-02T02:00:43.721Z,31.30
2022-11-02T02:03:18.338Z,27.40
2022-11-02T02:05:55.043Z,33.30
2022-11-02T02:08:28.112Z,31.70
2022-11-02T02:11:00.874Z,30.00
2022-11-02T02:13:33.279Z,29.90
2022-11-02T02:16:10.786Z,40.00
2022-11-02T02:18:47.073Z,34.20
2022-11-02T02:21:26.719Z,38.40
2022-11-02T02:24:19.475Z,33.40
2022-11-02T02:27:09.164Z,33.50
2022-11-02T02:29:49.942Z,32.70
2022-11-02T02:32:29.363Z,36.70
2022-11-02T02:35:05.728Z,35.80
2022-11-02T02:37:41.332Z,32.50
2022-11-02T02:40:17.231Z,39.10
2022-11-02T02:42:52.291Z,38.10
2022-11-02T02:45:27.828Z,35.50
2022-11-02T02:48:03.741Z,36.00
2022-11-02T02:50:38.975Z,33.90
2022-11-02T02:53:11.319Z,36.00
2022-11-02T02:58:19.848Z,37.40
2022-11-02T03:00:53.179Z,33.00
2022-11-02T03:03:27.142Z,34.80
2022-11-02T03:06:11.549Z,32.10
2022-11-02T03:08:48.427Z,35.80
2022-11-02T03:11:22.132Z,33.80
2022-11-02T03:14:05.447Z,36.60
2022-11-02T03:17:04.231Z,33.60
2022-11-02T03:19:43.044Z,35.10
2022-11-02T03:22:24.155Z,36.20
2022-11-02T03:25:01.831Z,33.70
2022-11-02T03:27:40.964Z,35.90
2022-11-02T03:30:16.511Z,30.10
2022-11-02T03:32:52.224Z,36.30
2022-11-02T03:35:26.538Z,34.20
2022-11-02T03:38:02.428Z,33.50
2022-11-02T03:40:37.171Z,40.00
2022-11-02T03:43:09.831Z,36.70
2022-11-02T03:48:15.007Z,35.90
2022-11-02T03:50:49.844Z,39.30
2022-11-02T03:53:24.516Z,38.70
2022-11-02T03:55:59.948Z,38.00
2022-11-02T03:58:32.550Z,37.20
2022-11-02T04:03:37.927Z,35.40
2022-11-02T04:06:10.560Z,47.60
2022-11-02T04:11:31.106Z,36.00
2022-11-02T04:14:20.913Z,38.80
2022-11-02T04:17:13.763Z,37.40
2022-11-02T04:19:49.640Z,42.60
2022-11-02T04:22:39.729Z,38.50
2022-11-02T04:25:21.997Z,37.50
2022-11-02T04:27:54.879Z,36.90
2022-11-02T04:30:27.251Z,35.90
2022-11-02T04:33:17.636Z,37.00
2022-11-02T04:35:49.810Z,34.20
2022-11-02T04:38:39.272Z,34.20
2022-11-02T04:41:29.731Z,38.10
2022-11-02T04:44:01.993Z,38.10
2022-11-02T04:46:35.331Z,36.40
2022-11-02T04:49:08.239Z,32.20
2022-11-02T04:51:45.725Z,32.60
2022-11-02T04:54:21.040Z,33.20
2022-11-02T04:56:53.341Z,33.00
2022-11-02T04:59:25.483Z,30.80
2022-11-02T05:01:57.868Z,42.40
2022-11-02T05:04:30.443Z,31.80
2022-11-02T05:07:06.399Z,34.50
2022-11-02T05:09:38.517Z,34.40
2022-11-02T05:12:10.989Z,31.70
2022-11-02T05:17:14.707Z,31.80
2022-11-02T05:19:47.228Z,29.70
2022-11-02T05:24:49.817Z,36.90
2022-11-02T05:27:22.364Z,30.90
2022-11-02T05:29:54.457Z,32.40
2022-11-02T05:32:26.655Z,30.60
2022-11-02T05:34:58.724Z,30.40
2022-11-02T05:37:30.845Z,32.90
2022-11-02T05:40:03.025Z,36.60
2022-11-02T05:42:35.138Z,29.90
2022-11-02T05:45:08.071Z,41.30
2022-11-02T05:47:40.135Z,35.80
2022-11-02T05:50:12.545Z,32.80
2022-11-02T05:52:44.634Z,33.60
2022-11-02T05:55:17.074Z,33.10
2022-11-02T05:57:53.697Z,32.70
2022-11-02T06:00:26.336Z,27.30
2022-11-02T06:03:01.693Z,36.90
2022-11-02T06:05:34.210Z,36.10
2022-11-02T06:08:06.714Z,34.20
2022-11-02T06:10:42.536Z,30.10
2022-11-02T06:13:14.677Z,39.70
2022-11-02T06:15:46.809Z,32.90
2022-11-02T06:18:19.024Z,40.60
2022-11-02T06:20:52.044Z,33.80
2022-11-02T06:23:24.607Z,38.00
2022-11-02T06:28:28.075Z,34.60
2022-11-02T06:31:00.436Z,32.60
2022-11-02T06:33:32.775Z,30.60
2022-11-02T06:36:05.952Z,37.60
2022-11-02T06:38:38.703Z,31.60
2022-11-02T06:43:41.596Z,29.20
2022-11-02T06:46:14.124Z,28.70
2022-11-02T06:48:47.638Z,34.80
2022-11-02T06:51:20.034Z,28.50
2022-11-02T06:53:52.125Z,36.00
2022-11-02T06:56:24.313Z,26.40
2022-11-02T06:58:56.482Z,32.20
2022-11-02T07:04:01.796Z,26.70
2022-11-02T07:06:35.062Z,35.90
2022-11-02T07:09:08.817Z,30.20
2022-11-02T07:11:42.123Z,33.80
2022-11-02T07:14:15.814Z,29.70
2022-11-02T07:16:49.512Z,31.20
2022-11-02T07:19:23.787Z,29.30
2022-11-02T07:21:56.228Z,33.50
2022-11-02T07:24:31.010Z,34.10
2022-11-02T07:27:04.458Z,31.20
2022-11-02T07:29:37.821Z,35.30
2022-11-02T07:32:11.085Z,29.50
2022-11-02T07:34:44.164Z,32.70
2022-11-02T07:37:17.563Z,32.70
2022-11-02T07:39:51.824Z,34.50
2022-11-02T07:42:25.089Z,27.60
2022-11-02T07:45:01.034Z,32.80
2022-11-02T07:47:34.591Z,33.50
2022-11-02T07:50:09.785Z,27.00
2022-11-02T07:52:49.196Z,37.40
2022-11-02T07:55:25.044Z,31.10
2022-11-02T07:57:59.586Z,28.70
2022-11-02T08:00:35.072Z,30.40
2022-11-02T08:09:47.109Z,26.80
2022-11-02T08:12:19.563Z,30.70
2022-11-02T08:17:23.000Z,32.40
2022-11-02T08:19:55.237Z,31.40
2022-11-02T08:22:27.546Z,31.10
2022-11-02T08:24:59.723Z,23.80
2022-11-02T08:27:32.010Z,23.90
2022-11-02T08:30:04.390Z,30.10
2022-11-02T08:32:36.620Z,26.90
2022-11-02T08:35:10.000Z,36.80
2022-11-02T08:37:42.305Z,25.50
2022-11-02T08:40:15.855Z,32.60
2022-11-02T08:42:48.048Z,35.50
2022-11-02T08:45:20.272Z,27.00
2022-11-02T08:47:52.494Z,25.90
2022-11-02T08:50:24.965Z,27.00
2022-11-02T08:52:57.483Z,23.80
2022-11-02T08:55:29.815Z,27.40
2022-11-02T08:58:02.877Z,23.00
2022-11-02T09:00:36.353Z,26.50
2022-11-02T09:03:09.749Z,26.30
2022-11-02T09:05:43.544Z,22.80
2022-11-02T09:08:17.464Z,22.40
2022-11-02T09:10:51.063Z,20.60
2022-11-02T09:13:25.921Z,23.40
2022-11-02T09:15:59.450Z,25.00
2022-11-02T09:18:31.963Z,24.40
2022-11-02T09:26:03.714Z,22.00
2022-11-02T09:28:35.683Z,25.50
2022-11-02T09:31:10.795Z,23.70
2022-11-02T09:33:44.113Z,27.80
2022-11-02T09:36:16.374Z,24.10
2022-11-02T09:38:49.384Z,26.60
2022-11-02T09:41:26.970Z,21.10
2022-11-02T09:44:03.483Z,25.60
2022-11-02T09:46:40.124Z,26.00
2022-11-02T09:49:16.639Z,24.70
2022-11-02T09:51:50.259Z,28.30
2022-11-02T09:54:26.722Z,22.70
2022-11-02T09:57:02.287Z,20.40
2022-11-02T09:59:34.652Z,20.90
2022-11-02T10:05:11.424Z,25.80
2022-11-02T10:07:58.163Z,22.80
2022-11-02T10:10:35.380Z,23.10
2022-11-02T10:13:17.388Z,28.10
2022-11-02T10:15:53.815Z,21.80
2022-11-02T10:18:28.238Z,25.00
2022-11-02T10:21:02.056Z,24.20
2022-11-02T10:23:38.100Z,18.70
2022-11-02T10:26:14.491Z,19.80
2022-11-02T10:28:49.936Z,23.60
2022-11-02T10:31:30.709Z,19.10
2022-11-02T10:34:12.571Z,24.80
2022-11-02T10:36:51.154Z,22.20
2022-11-02T10:39:29.871Z,18.80
2022-11-02T10:42:18.478Z,18.10
2022-11-02T10:45:15.834Z,17.40
2022-11-02T10:47:59.711Z,23.90
2022-11-02T10:50:46.566Z,16.80
2022-11-02T10:53:40.113Z,17.30
2022-11-02T10:56:17.794Z,16.30
2022-11-02T10:58:56.134Z,20.40
2022-11-02T11:01:29.107Z,20.00
2022-11-02T11:04:03.529Z,19.70
2022-11-02T11:06:39.347Z,23.60
2022-11-02T11:09:19.079Z,19.20
2022-11-02T11:11:59.963Z,22.20
2022-11-02T11:20:35.859Z,19.00
2022-11-02T11:23:23.141Z,16.40
2022-11-02T11:26:01.345Z,24.10
2022-11-02T11:28:40.421Z,20.80
2022-11-02T11:31:16.076Z,15.80
2022-11-02T11:33:50.977Z,16.00
2022-11-02T11:36:31.603Z,18.50
2022-11-02T11:39:05.801Z,16.50
2022-11-02T11:41:42.858Z,19.00
2022-11-02T11:44:16.524Z,17.00
2022-11-02T11:46:50.279Z,21.40
2022-11-02T11:49:41.526Z,21.00
2022-11-02T11:52:27.017Z,16.80
2022-11-02T11:55:03.380Z,13.80
2022-11-02T12:00:30.361Z,18.70
2022-11-02T12:03:11.124Z,14.90
2022-11-02T12:05:56.181Z,18.00
2022-11-02T12:08:42.432Z,14.30
2022-11-02T12:11:35.128Z,14.40
2022-11-02T12:14:18.138Z,25.80
2022-11-02T12:17:17.540Z,22.80
2022-11-02T12:20:01.953Z,19.50
2022-11-02T12:22:39.130Z,17.60
2022-11-02T12:25:21.266Z,21.00
2022-11-02T12:27:58.936Z,18.30
2022-11-02T12:30:34.989Z,20.60
2022-11-02T12:33:18.739Z,19.80
2022-11-02T12:36:06.159Z,16.30
2022-11-02T12:38:47.839Z,19.10
2022-11-02T12:41:36.765Z,15.60
2022-11-02T12:44:20.904Z,11.90
2022-11-02T12:47:00.707Z,15.50
2022-11-02T12:49:46.587Z,15.20
2022-11-02T12:52:30.745Z,17.20
2022-11-02T12:55:05.395Z,15.80
2022-11-02T12:57:39.514Z,20.10
2022-11-02T13:00:19.925Z,20.90
2022-11-02T13:02:59.307Z,19.10
2022-11-02T13:05:34.646Z,13.90
2022-11-02T13:08:13.479Z,17.70
2022-11-02T13:10:53.332Z,14.70
2022-11-02T13:13:31.237Z,16.60
2022-11-02T13:16:04.219Z,13.80
2022-11-02T13:18:39.572Z,17.70
2022-11-02T13:21:14.599Z,22.40
2022-11-02T13:23:51.168Z,20.30
2022-11-02T13:26:30.456Z,17.80
2022-11-02T13:29:06.969Z,17.00
2022-11-02T13:31:41.648Z,16.90
2022-11-02T13:34:17.478Z,14.80
2022-11-02T13:36:49.807Z,13.50
2022-11-02T13:39:27.678Z,14.40
2022-11-02T13:42:28.699Z,14.30
2022-11-02T13:45:17.889Z,13.00
2022-11-02T13:48:30.603Z,15.20
2022-11-02T13:51:07.136Z,19.50
2022-11-02T13:53:41.452Z,16.80
2022-11-02T13:56:22.236Z,16.20
2022-11-02T13:59:00.821Z,20.70
2022-11-02T14:01:36.630Z,19.40
2022-11-02T14:04:11.425Z,20.60
2022-11-02T14:06:50.106Z,23.80
2022-11-02T14:09:28.397Z,16.50
2022-11-02T14:12:40.941Z,18.50
2022-11-02T14:15:49.880Z,19.80
2022-11-02T14:18:33.519Z,15.20
2022-11-02T14:21:32.463Z,18.60
2022-11-02T14:24:09.861Z,19.30
2022-11-02T14:26:57.162Z,19.90
2022-11-02T14:29:52.236Z,17.80
2022-11-02T14:32:34.867Z,18.40
2022-11-02T14:35:18.346Z,27.30
2022-11-02T14:38:12.627Z,24.00
2022-11-02T14:40:55.525Z,20.30
2022-11-02T14:43:51.364Z,16.70
2022-11-02T14:46:37.223Z,22.40
2022-11-02T14:49:20.184Z,22.60
2022-11-02T14:52:04.293Z,26.20
2022-11-02T14:54:47.571Z,19.80
2022-11-02T14:57:24.497Z,24.30
2022-11-02T14:59:58.996Z,30.60
2022-11-02T15:02:37.349Z,19.70
2022-11-02T15:05:27.795Z,24.40
2022-11-02T15:08:02.457Z,32.00
2022-11-02T15:10:41.994Z,22.70
2022-11-02T15:13:36.209Z,22.60
2022-11-02T15:16:26.477Z,32.50
2022-11-02T15:19:47.581Z,27.90
2022-11-02T15:22:41.024Z,26.70
2022-11-02T15:25:17.331Z,28.60
2022-11-02T15:27:50.191Z,30.90
2022-11-02T15:30:28.388Z,34.10
2022-11-02T15:33:05.357Z,31.60
2022-11-02T15:35:39.970Z,29.60
2022-11-02T15:38:18.193Z,40.20
2022-11-02T15:41:00.847Z,31.00
2022-11-02T15:43:49.533Z,33.20
2022-11-02T15:46:33.417Z,33.30
2022-11-02T15:49:15.956Z,30.80
2022-11-02T15:51:54.480Z,33.30
2022-11-02T15:54:43.435Z,27.90
2022-11-02T15:57:25.499Z,31.40
2022-11-02T16:00:11.191Z,34.20
2022-11-02T16:02:45.027Z,35.70
2022-11-02T16:05:22.362Z,23.80
2022-11-02T16:08:10.564Z,24.80
2022-11-02T16:10:43.406Z,30.20
2022-11-02T16:13:18.271Z,31.50
2022-11-02T16:15:51.261Z,36.60
2022-11-02T16:18:31.269Z,29.10
2022-11-02T16:21:06.771Z,24.40
2022-11-02T16:23:41.140Z,31.10
2022-11-02T16:26:19.941Z,25.70
2022-11-02T16:28:54.258Z,29.50
2022-11-02T16:31:31.308Z,33.40
2022-11-02T16:34:05.156Z,32.40
2022-11-02T16:36:38.751Z,31.50
2022-11-02T16:39:20.457Z,30.90
2022-11-02T16:41:55.814Z,32.90
2022-11-02T16:44:30.023Z,27.70
2022-11-02T16:47:16.929Z,33.30
2022-11-02T16:50:01.818Z,27.30
2022-11-02T16:52:36.274Z,25.10
2022-11-02T16:55:36.322Z,29.40
2022-11-02T16:58:10.336Z,27.80
2022-11-02T17:00:42.649Z,24.20
2022-11-02T17:10:38.793Z,25.70
2022-11-02T17:13:21.911Z,27.70
2022-11-02T17:15:56.921Z,24.90
2022-11-02T17:18:31.077Z,25.30
2022-11-02T17:21:27.393Z,29.20
2022-11-02T17:24:00.929Z,26.10
2022-11-02T17:26:40.835Z,24.30
2022-11-02T17:29:36.345Z,29.00
2022-11-02T17:32:16.738Z,28.20
2022-11-02T17:34:55.998Z,24.40
2022-11-02T17:37:30.831Z,22.60
2022-11-02T17:40:04.871Z,23.90
2022-11-02T17:42:56.139Z,30.70
2022-11-02T17:45:30.180Z,24.50
2022-11-02T17:48:03.377Z,24.00
2022-11-02T17:50:37.664Z,28.00
2022-11-02T17:53:14.492Z,25.40
2022-11-02T17:55:46.662Z,27.20
2022-11-02T17:58:18.889Z,23.30
2022-11-02T18:03:25.525Z,28.10
2022-11-02T18:06:00.611Z,30.20
2022-11-02T18:08:56.387Z,29.80
2022-11-02T18:11:28.558Z,31.80
2022-11-02T18:14:00.922Z,23.40
2022-11-02T18:19:04.404Z,30.30
2022-11-02T18:21:36.617Z,28.40
2022-11-02T18:24:09.540Z,27.80
2022-11-02T18:26:44.259Z,26.00
2022-11-02T18:29:19.258Z,30.00
2022-11-02T18:31:51.655Z,23.40
2022-11-02T18:34:24.015Z,23.30
2022-11-02T18:36:56.144Z,26.90
2022-11-02T18:39:28.399Z,20.60
2022-11-02T18:42:00.659Z,24.10
2022-11-02T18:44:33.034Z,25.10
2022-11-02T18:47:05.155Z,23.60
2022-11-02T18:49:37.372Z,23.30
2022-11-02T18:54:40.335Z,23.30
2022-11-02T18:57:12.571Z,31.70
2022-11-02T18:59:44.815Z,26.20
2022-11-02T19:02:17.233Z,25.50
2022-11-02T19:04:49.717Z,26.20
2022-11-02T19:10:11.075Z,29.60
2022-11-02T19:12:43.295Z,22.70
2022-11-02T19:15:15.540Z,26.00
2022-11-02T19:17:47.804Z,29.60
2022-11-02T19:20:21.168Z,28.50
2022-11-02T19:22:57.528Z,34.80
2022-11-02T19:25:29.979Z,25.80
2022-11-02T19:28:04.656Z,32.40
2022-11-02T19:30:40.034Z,29.70
2022-11-02T19:33:12.219Z,28.40
2022-11-02T19:35:44.386Z,27.80
2022-11-02T19:38:16.623Z,28.50
2022-11-02T19:40:48.825Z,30.00
2022-11-02T19:43:21.058Z,37.60
2022-11-02T19:45:53.261Z,37.90
2022-11-02T19:48:25.566Z,35.80
2022-11-02T19:50:57.736Z,26.70
2022-11-02T19:53:29.901Z,27.80
2022-11-02T19:56:02.101Z,35.00
2022-11-02T19:58:34.418Z,27.70
2022-11-02T20:01:11.840Z,29.50
2022-11-02T20:03:44.551Z,28.10
2022-11-02T20:06:18.846Z,28.20
2022-11-02T20:08:53.520Z,28.40
2022-11-02T20:11:27.539Z,33.50
2022-11-02T20:14:01.097Z,27.40
2022-11-02T20:16:33.428Z,36.70
2022-11-02T20:19:06.717Z,26.50
2022-11-02T20:21:42.959Z,29.60
2022-11-02T20:24:16.487Z,31.80
2022-11-02T20:26:48.665Z,37.10
2022-11-02T20:29:20.780Z,26.70
2022-11-02T20:31:53.033Z,25.30
2022-11-02T20:34:25.212Z,30.80
2022-11-02T20:39:28.256Z,25.90
2022-11-02T20:42:00.499Z,25.40
2022-11-02T20:44:32.811Z,32.80
2022-11-02T20:47:05.057Z,33.90
2022-11-02T20:49:50.147Z,25.80
2022-11-02T20:52:23.236Z,28.40
2022-11-02T20:57:28.367Z,22.50
2022-11-02T21:00:00.632Z,31.20
2022-11-02T21:02:32.951Z,22.20
2022-11-02T21:05:05.282Z,27.10
2022-11-02T21:07:37.480Z,22.30
2022-11-02T21:10:11.836Z,30.10
2022-11-02T21:13:01.318Z,22.70
2022-11-02T21:15:35.479Z,23.60
2022-11-02T21:18:07.909Z,26.90
2022-11-02T21:23:10.719Z,30.10
2022-11-02T21:25:42.979Z,30.10
2022-11-02T21:28:15.210Z,25.70
2022-11-02T21:30:48.601Z,21.20
2022-11-02T21:33:20.767Z,31.70
2022-11-02T21:35:55.043Z,27.40
2022-11-02T21:38:28.149Z,26.50
2022-11-02T21:41:03.366Z,24.70
2022-11-02T21:43:38.464Z,29.30
2022-11-02T21:46:10.619Z,30.30
2022-11-02T21:48:42.863Z,23.70
2022-11-02T21:51:16.323Z,21.10
2022-11-02T21:53:49.348Z,25.00
2022-11-02T21:56:22.558Z,30.70
2022-11-02T21:58:58.863Z,22.10
2022-11-02T22:01:49.338Z,24.60
2022-11-02T22:04:25.526Z,22.40
2022-11-02T22:06:58.501Z,21.20
2022-11-02T22:09:31.107Z,25.20
2022-11-02T22:12:20.918Z,18.40
2022-11-02T22:14:53.162Z,24.50
2022-11-02T22:17:48.641Z,22.50
2022-11-02T22:20:18.736Z,21.40
2022-11-02T22:22:51.033Z,18.70
2022-11-02T22:25:23.546Z,22.70
2022-11-02T22:30:29.472Z,24.60
2022-11-02T22:33:01.596Z,18.50
2022-11-02T22:35:33.822Z,21.80
2022-11-02T22:38:23.337Z,17.40
2022-11-02T22:41:01.837Z,21.00
2022-11-02T22:43:34.062Z,16.70
2022-11-02T22:46:07.993Z,17.70
2022-11-02T22:48:40.159Z,19.90
2022-11-02T22:51:13.083Z,17.30
2022-11-02T22:53:45.275Z,18.60
2022-11-02T22:56:18.964Z,21.70
2022-11-02T22:58:52.083Z,17.00
2022-11-02T23:01:25.990Z,18.20
2022-11-02T23:03:58.598Z,20.30
2022-11-02T23:06:30.940Z,22.20
2022-11-02T23:09:03.251Z,18.60
2022-11-02T23:11:37.426Z,15.50
2022-11-02T23:14:11.440Z,21.30
2022-11-02T23:16:46.891Z,18.00
2022-11-02T23:19:30.840Z,19.70
2022-11-02T23:22:22.312Z,18.10
2022-11-02T23:25:15.324Z,21.40
2022-11-02T23:28:06.708Z,17.40
2022-11-02T23:30:57.509Z,23.20
2022-11-02T23:33:32.397Z,17.20
2022-11-02T23:36:15.820Z,23.90
2022-11-02T23:39:06.070Z,20.10
2022-11-02T23:41:39.168Z,18.60
2022-11-02T23:44:14.603Z,16.90
2022-11-02T23:46:48.722Z,18.80
2022-11-02T23:49:21.177Z,16.40
2022-11-02T23:54:59.095Z,17.50
2022-11-02T23:57:32.022Z,20.80
